Time;durP1;ratioP1;P1;durP2;ratioP2;P2;SDS_P1;SDS_P2;PMS_P1;PMS_P2;Temp;Humidity;BMP_temperature;BMP_pressure;BME280_temperature;BME280_humidity;BME280_pressure;Samples;Min_cycle;Max_cycle;Signal;HPM_P1;HPM_P2
2024/04/17 00:00:33;;;;;;;13.48;3.92;;;;;;;7.51;100.00;101026.94;5536587;25;20000;-68
2024/04/17 00:03:21;;;;;;;13.68;3.67;;;;;;;7.51;100.00;101026.94;5532058;25;20007;-68
2024/04/17 00:06:11;;;;;;;12.82;3.70;;;;;;;7.50;100.00;101019.88;5553154;25;20026;-68
2024/04/17 00:08:59;;;;;;;13.52;3.67;;;;;;;7.50;100.00;101017.16;5535197;25;20393;-68
2024/04/17 00:11:47;;;;;;;14.45;3.88;;;;;;;7.46;100.00;101024.16;5536446;25;20006;-69
2024/04/17 00:14:35;;;;;;;13.35;3.90;;;;;;;7.46;100.00;101016.03;5507646;25;19997;-68
2024/04/17 00:17:23;;;;;;;16.67;3.75;;;;;;;7.46;100.00;101016.84;5534238;25;19997;-69
2024/04/17 00:20:12;;;;;;;13.00;3.60;;;;;;;7.44;100.00;101018.16;5534405;25;20100;-69
2024/04/17 00:23:00;;;;;;;11.07;3.42;;;;;;;7.44;100.00;101018.16;5529620;25;20061;-69
2024/04/17 00:25:48;;;;;;;9.30;3.30;;;;;;;7.44;100.00;101013.53;5510431;25;19997;-68
2024/04/17 00:28:36;;;;;;;12.80;3.70;;;;;;;7.44;100.00;101012.72;5511339;25;20001;-67
2024/04/17 00:31:24;;;;;;;10.95;3.35;;;;;;;7.45;100.00;101014.34;5535440;25;20369;-68
2024/04/17 00:34:12;;;;;;;13.27;3.25;;;;;;;7.45;100.00;101014.34;5481957;25;20009;-69
2024/04/17 00:37:01;;;;;;;12.30;3.55;;;;;;;7.43;100.00;101013.78;5561288;25;19997;-68
2024/04/17 00:39:49;;;;;;;10.98;3.42;;;;;;;7.42;100.00;101012.13;5561396;25;19997;-68
2024/04/17 00:42:37;;;;;;;9.85;3.17;;;;;;;7.40;100.00;101017.78;5512599;25;20001;-67
2024/04/17 00:45:40;;;;;;;10.80;3.33;;;;;;;7.38;100.00;101022.63;5560073;25;19997;-68
2024/04/17 00:48:28;;;;;;;9.48;3.10;;;;;;;7.36;100.00;101015.81;5460987;25;20007;-68
2024/04/17 00:51:16;;;;;;;12.60;3.30;;;;;;;7.36;100.00;101015.81;5536604;25;20001;-68
2024/04/17 00:54:05;;;;;;;14.10;3.67;;;;;;;7.31;100.00;101021.13;5508653;25;20217;-68
2024/04/17 00:56:54;;;;;;;14.32;3.53;;;;;;;7.25;100.00;101012.09;5509661;25;20001;-68
2024/04/17 00:59:43;;;;;;;13.15;3.42;;;;;;;7.22;100.00;101012.56;5508160;25;20496;-68
2024/04/17 01:02:31;;;;;;;12.77;4.25;;;;;;;7.22;100.00;101010.69;5509528;25;19997;-68
2024/04/17 01:05:19;;;;;;;12.05;3.80;;;;;;;7.23;100.00;101006.06;5502881;25;19997;-68
2024/04/17 01:08:07;;;;;;;13.93;3.63;;;;;;;7.22;100.00;100999.84;5499465;26;20450;-68
2024/04/17 01:11:02;;;;;;;12.55;3.30;;;;;;;7.22;100.00;101010.69;5498138;26;20002;-68
2024/04/17 01:13:51;;;;;;;12.75;3.72;;;;;;;7.22;100.00;101015.28;5499247;26;20544;-68
2024/04/17 01:16:41;;;;;;;11.20;3.92;;;;;;;7.14;100.00;101005.63;5533264;25;20007;-68
2024/04/17 01:19:30;;;;;;;12.55;3.50;;;;;;;7.13;100.00;101003.19;5509426;25;20350;-68
2024/04/17 01:22:18;;;;;;;13.23;3.58;;;;;;;7.09;100.00;101010.94;5559596;25;20421;-68
2024/04/17 01:25:06;;;;;;;16.17;3.60;;;;;;;7.10;100.00;101006.38;5522678;25;20008;-69
2024/04/17 01:27:54;;;;;;;12.77;3.60;;;;;;;7.07;100.00;101002.25;5532285;25;20016;-69
2024/04/17 01:30:42;;;;;;;16.38;4.28;;;;;;;7.06;100.00;101000.59;5511349;25;20004;-69
2024/04/17 01:33:30;;;;;;;14.02;3.90;;;;;;;7.04;100.00;100998.13;5477278;25;20745;-69
2024/04/17 01:36:18;;;;;;;12.48;4.13;;;;;;;7.00;100.00;100988.03;5534723;25;20445;-69
2024/04/17 01:39:07;;;;;;;15.20;3.90;;;;;;;6.99;100.00;100986.38;5535339;25;19996;-69
2024/04/17 01:41:55;;;;;;;11.90;3.90;;;;;;;6.95;100.00;100987.91;5531176;25;20413;-69
2024/04/17 01:44:43;;;;;;;11.70;3.97;;;;;;;6.94;100.00;100997.09;5508531;25;20000;-69
2024/04/17 01:47:33;;;;;;;14.27;4.15;;;;;;;6.94;100.00;100991.69;5482614;25;20041;-69
2024/04/17 01:50:30;;;;;;;15.10;3.95;;;;;;;6.95;100.00;100993.31;5559528;25;20042;-69
2024/04/17 01:53:18;;;;;;;14.82;4.03;;;;;;;6.91;100.00;100990.28;5461503;25;20004;-69
2024/04/17 01:56:06;;;;;;;14.77;3.95;;;;;;;6.91;100.00;100992.16;5525481;26;20009;-69
2024/04/17 01:58:55;;;;;;;17.40;5.13;;;;;;;6.90;100.00;100998.63;5472510;26;20108;-68
2024/04/17 02:01:43;;;;;;;10.00;3.88;;;;;;;6.87;100.00;101001.81;5561843;25;20578;-69
2024/04/17 02:04:32;;;;;;;19.63;4.25;;;;;;;6.88;100.00;100998.03;5508101;25;20018;-68
2024/04/17 02:07:20;;;;;;;14.52;4.80;;;;;;;6.86;100.00;100994.78;5532066;25;20001;-68
2024/04/17 02:10:08;;;;;;;13.18;3.83;;;;;;;6.83;100.00;100991.47;5534834;25;20340;-68
2024/04/17 02:12:56;;;;;;;12.52;3.95;;;;;;;6.81;100.00;100993.59;5517356;25;19998;-68
2024/04/17 02:15:44;;;;;;;12.75;4.05;;;;;;;6.81;100.00;100995.50;5473932;26;20005;-69
2024/04/17 02:18:33;;;;;;;16.33;4.30;;;;;;;6.80;100.00;100991.94;5472223;26;20333;-68
2024/04/17 02:21:22;;;;;;;14.60;4.68;;;;;;;6.79;100.00;100995.72;5509365;25;19993;-68
2024/04/17 02:24:10;;;;;;;14.35;4.45;;;;;;;6.75;100.00;100983.72;5476213;26;20010;-68
2024/04/17 02:26:58;;;;;;;14.50;4.38;;;;;;;6.77;100.00;100997.03;5525085;26;20067;-69
2024/04/17 02:29:47;;;;;;;13.13;3.78;;;;;;;6.77;100.00;100997.84;5496504;26;19998;-68
2024/04/17 02:32:35;;;;;;;11.85;3.92;;;;;;;6.76;100.00;100996.19;5526832;25;20001;-68
2024/04/17 02:35:23;;;;;;;15.05;4.05;;;;;;;6.75;100.00;100999.94;5531720;25;20001;-68
2024/04/17 02:38:11;;;;;;;15.32;4.80;;;;;;;6.74;100.00;101006.44;5560311;25;20090;-68
2024/04/17 02:41:00;;;;;;;12.20;4.32;;;;;;;6.70;100.00;101007.97;5485308;25;20455;-68
2024/04/17 02:43:49;;;;;;;16.33;4.20;;;;;;;6.69;100.00;101000.91;5497085;26;20021;-68
2024/04/17 02:46:37;;;;;;;15.55;4.82;;;;;;;6.71;100.00;101003.38;5521054;26;20004;-68
2024/04/17 02:49:25;;;;;;;13.90;4.43;;;;;;;6.71;100.00;101001.50;5531970;25;20072;-68
2024/04/17 02:52:14;;;;;;;15.95;4.40;;;;;;;6.70;100.00;100997.13;5554570;25;20038;-69
2024/04/17 02:55:02;;;;;;;12.82;4.90;;;;;;;6.69;100.00;101000.91;5559708;25;19997;-68
2024/04/17 02:57:50;;;;;;;15.00;4.50;;;;;;;6.70;100.00;101002.56;5561238;25;20072;-69
2024/04/17 03:00:39;;;;;;;11.13;3.85;;;;;;;6.71;100.00;100997.97;5559178;25;20001;-69
2024/04/17 03:03:27;;;;;;;13.32;4.28;;;;;;;6.71;100.00;100998.81;5489883;26;20309;-69
2024/04/17 03:06:15;;;;;;;13.40;4.80;;;;;;;6.71;100.00;100993.38;5520440;26;20350;-69
2024/04/17 03:09:03;;;;;;;12.65;3.92;;;;;;;6.71;100.00;100982.56;5524079;26;20098;-68
2024/04/17 03:11:51;;;;;;;11.85;3.78;;;;;;;6.76;100.00;100995.38;5540596;25;20001;-69
2024/04/17 03:14:39;;;;;;;14.95;3.92;;;;;;;6.75;100.00;100986.41;5534943;25;20003;-69
2024/04/17 03:17:27;;;;;;;12.32;3.83;;;;;;;6.75;100.00;100991.00;5535879;25;20004;-69
2024/04/17 03:20:16;;;;;;;14.40;3.92;;;;;;;6.73;100.00;100995.84;5507275;25;20001;-69
2024/04/17 03:23:04;;;;;;;13.00;3.92;;;;;;;6.75;100.00;101002.66;5532680;25;20001;-69
2024/04/17 03:25:59;;;;;;;13.90;3.72;;;;;;;6.78;100.00;100999.50;5542810;25;20001;-67
2024/04/17 03:28:47;;;;;;;11.27;3.60;;;;;;;6.82;100.00;101000.66;5492327;26;20583;-67
2024/04/17 03:31:36;;;;;;;10.00;3.55;;;;;;;6.83;100.00;101004.16;5566491;25;19996;-67
2024/04/17 03:34:24;;;;;;;10.60;3.33;;;;;;;6.83;100.00;101005.03;5578420;25;20068;-67
2024/04/17 03:37:12;;;;;;;8.07;3.33;;;;;;;6.85;100.00;101009.38;5537972;25;20015;-68
2024/04/17 03:40:01;;;;;;;8.98;2.92;;;;;;;6.83;100.00;101010.44;5487251;25;20008;-68
2024/04/17 03:42:49;;;;;;;8.75;3.10;;;;;;;6.85;100.00;101017.50;5570850;25;20011;-65
2024/04/17 03:45:37;;;;;;;8.25;2.78;;;;;;;6.86;100.00;101016.44;5552055;25;19989;-62
2024/04/17 03:48:25;;;;;;;10.32;3.03;;;;;;;6.84;100.00;101022.09;5554781;25;19992;-66
2024/04/17 03:51:13;;;;;;;8.30;3.30;;;;;;;6.83;100.00;101023.13;5573833;25;20012;-64
2024/04/17 03:54:01;;;;;;;12.15;3.20;;;;;;;6.84;100.00;101016.66;5574392;25;20029;-66
2024/04/17 03:56:49;;;;;;;7.88;2.78;;;;;;;6.86;100.00;101035.41;5510467;25;19997;-67
2024/04/17 03:59:37;;;;;;;11.93;2.90;;;;;;;6.86;100.00;101024.56;5540443;25;20029;-67
2024/04/17 04:02:25;;;;;;;8.60;2.60;;;;;;;6.86;100.00;101027.28;5556317;25;20080;-67
2024/04/17 04:05:13;;;;;;;8.82;3.15;;;;;;;6.87;100.00;101035.16;5563833;25;20445;-68
2024/04/17 04:08:02;;;;;;;10.55;2.92;;;;;;;6.86;100.00;101032.69;5561662;25;20008;-68
2024/04/17 04:10:50;;;;;;;8.80;2.70;;;;;;;6.86;100.00;101024.56;5535923;25;20024;-68
2024/04/17 04:13:38;;;;;;;7.18;2.65;;;;;;;6.85;100.00;101029.13;5535922;25;20004;-68
2024/04/17 04:16:26;;;;;;;7.85;3.22;;;;;;;6.83;100.00;101032.09;5487419;25;19997;-68
2024/04/17 04:19:14;;;;;;;10.43;3.13;;;;;;;6.83;100.00;101028.53;5511003;25;19996;-69
2024/04/17 04:22:03;;;;;;;8.88;2.80;;;;;;;6.81;100.00;101023.38;5562699;25;20472;-69
2024/04/17 04:24:51;;;;;;;7.57;2.53;;;;;;;6.79;100.00;101024.69;5509589;25;20029;-69
2024/04/17 04:27:39;;;;;;;8.85;2.83;;;;;;;6.79;100.00;101021.97;5532443;25;20012;-69
2024/04/17 04:30:27;;;;;;;7.93;2.45;;;;;;;6.79;100.00;101038.22;5536054;25;20077;-69
2024/04/17 04:33:15;;;;;;;6.18;2.50;;;;;;;6.78;100.00;101034.72;5534650;25;20448;-69
2024/04/17 04:36:04;;;;;;;7.18;2.38;;;;;;;6.78;100.00;101047.41;5509371;25;20001;-69
2024/04/17 04:38:52;;;;;;;6.30;2.40;;;;;;;6.75;100.00;101043.28;5561211;25;20024;-69
2024/04/17 04:41:40;;;;;;;7.30;2.55;;;;;;;6.73;100.00;101033.75;5559009;25;20371;-69
2024/04/17 04:44:28;;;;;;;7.28;2.55;;;;;;;6.71;100.00;101034.00;5535754;25;20008;-69
2024/04/17 04:47:16;;;;;;;5.82;2.55;;;;;;;6.74;100.00;101047.06;5509314;25;22157;-68
2024/04/17 04:50:04;;;;;;;6.18;2.45;;;;;;;6.73;100.00;101044.56;5538426;25;20072;-68
2024/04/17 04:52:53;;;;;;;6.47;2.67;;;;;;;6.73;100.00;101044.56;5434848;25;20000;-67
2024/04/17 04:55:41;;;;;;;6.95;2.58;;;;;;;6.67;100.00;101032.81;5511105;25;19997;-67
2024/04/17 04:58:30;;;;;;;5.68;2.03;;;;;;;6.68;100.00;101031.75;5561591;25;19997;-67
2024/04/17 05:01:18;;;;;;;4.85;2.03;;;;;;;6.63;100.00;101042.47;5524073;26;20013;-67
2024/04/17 05:04:06;;;;;;;3.83;1.70;;;;;;;6.62;100.00;101043.53;5482848;25;20007;-68
2024/04/17 05:06:55;;;;;;;5.80;2.28;;;;;;;6.65;100.00;101036.81;5485240;25;20369;-68
2024/04/17 05:09:43;;;;;;;5.03;1.85;;;;;;;6.67;100.00;101043.66;5507983;25;20401;-68
2024/04/17 05:12:31;;;;;;;3.22;1.67;;;;;;;6.68;100.00;101037.16;5534209;25;20342;-68
2024/04/17 05:15:19;;;;;;;7.25;2.10;;;;;;;6.71;100.00;101036.72;5519016;25;20004;-68
2024/04/17 05:18:07;;;;;;;4.28;1.80;;;;;;;6.72;100.00;101037.53;5562652;25;20028;-68
2024/04/17 05:20:55;;;;;;;3.10;1.60;;;;;;;6.74;100.00;101040.81;5499149;26;20073;-67
2024/04/17 05:23:43;;;;;;;4.22;1.65;;;;;;;6.76;100.00;101044.13;5499374;26;19998;-68
2024/04/17 05:26:33;;;;;;;4.90;2.05;;;;;;;6.78;100.00;101042.81;5505693;25;20033;-68
2024/04/17 05:29:21;;;;;;;2.45;1.55;;;;;;;6.81;100.00;101041.53;5560587;25;20007;-69
2024/04/17 05:32:09;;;;;;;6.55;2.30;;;;;;;6.80;100.00;101034.44;5510082;25;20000;-69
2024/04/17 05:34:57;;;;;;;3.58;1.83;;;;;;;6.82;100.00;101037.75;5561178;25;20060;-67
2024/04/17 05:37:46;;;;;;;4.72;1.98;;;;;;;6.82;100.00;101035.84;5508615;25;20024;-67
2024/04/17 05:40:34;;;;;;;6.07;2.25;;;;;;;6.83;100.00;101033.97;5523302;25;20004;-67
2024/04/17 05:43:23;;;;;;;6.93;3.15;;;;;;;6.86;100.00;101038.13;5531783;25;20547;-68
2024/04/17 05:46:11;;;;;;;5.53;2.25;;;;;;;6.84;100.00;101035.63;5558572;25;20360;-69
2024/04/17 05:49:00;;;;;;;8.85;2.28;;;;;;;6.85;100.00;101034.56;5480334;25;20400;-69
2024/04/17 05:51:48;;;;;;;4.07;2.15;;;;;;;6.85;100.00;101034.56;5534317;25;20464;-69
2024/04/17 05:54:37;;;;;;;8.05;3.50;;;;;;;6.83;100.00;101032.09;5534157;25;20001;-69
2024/04/17 05:57:25;;;;;;;5.13;2.45;;;;;;;6.76;100.00;101039.53;5533184;25;20003;-67
2024/04/17 06:00:20;;;;;;;5.75;2.00;;;;;;;6.76;100.00;101047.66;5542103;25;20045;-67
2024/04/17 06:03:09;;;;;;;9.45;2.50;;;;;;;6.72;100.00;101041.06;5562224;25;20007;-67
2024/04/17 06:05:57;;;;;;;8.82;3.03;;;;;;;6.73;100.00;101042.69;5533585;25;20004;-68
2024/04/17 06:08:47;;;;;;;8.23;2.45;;;;;;;6.75;100.00;101046.00;5510633;25;20420;-68
2024/04/17 06:11:35;;;;;;;6.38;2.65;;;;;;;6.76;100.00;101053.06;5483526;25;20432;-68
2024/04/17 06:14:23;;;;;;;6.18;2.60;;;;;;;6.76;100.00;101055.78;5533737;25;20008;-68
2024/04/17 06:17:11;;;;;;;6.72;2.67;;;;;;;6.75;100.00;101054.13;5533473;25;20001;-68
2024/04/17 06:20:02;;;;;;;6.85;2.58;;;;;;;6.74;100.00;101057.91;5533106;26;20005;-68
2024/04/17 06:22:55;;;;;;;7.47;3.30;;;;;;;6.75;100.00;101064.13;5499868;26;20036;-69
2024/04/17 06:25:45;;;;;;;7.75;3.05;;;;;;;6.75;100.00;101058.72;4717682;26;10001213;-68
2024/04/17 06:28:33;;;;;;;7.05;2.90;;;;;;;6.74;100.00;101060.59;5550890;25;20004;-68
2024/04/17 06:31:21;;;;;;;8.30;2.83;;;;;;;6.72;100.00;101060.00;5496610;26;19997;-68
2024/04/17 06:34:09;;;;;;;8.32;3.20;;;;;;;6.73;100.00;101058.94;5495358;26;20010;-68
2024/04/17 06:36:58;;;;;;;6.63;2.90;;;;;;;6.74;100.00;101057.06;5491380;25;20053;-69
2024/04/17 06:39:46;;;;;;;6.28;2.75;;;;;;;6.78;100.00;101053.66;5518797;26;20078;-68
2024/04/17 06:42:34;;;;;;;5.50;2.30;;;;;;;6.79;100.00;101047.16;5542909;25;20004;-68
2024/04/17 06:45:22;;;;;;;7.00;2.85;;;;;;;6.81;100.00;101053.19;5466741;26;20339;-69
2024/04/17 06:48:10;;;;;;;9.80;4.13;;;;;;;6.82;100.00;101049.41;5503586;25;20467;-68
2024/04/17 06:50:58;;;;;;;7.53;2.55;;;;;;;6.80;100.00;101051.50;5504628;25;20073;-68
2024/04/17 06:53:47;;;;;;;8.88;2.90;;;;;;;6.87;100.00;101056.00;5552591;25;20012;-67
2024/04/17 06:56:35;;;;;;;7.45;2.55;;;;;;;6.88;100.00;101049.50;5555548;25;20041;-67
2024/04/17 06:59:23;;;;;;;6.90;3.08;;;;;;;6.90;100.00;101050.09;5491061;26;20004;-68
2024/04/17 07:02:16;;;;;;;10.35;3.40;;;;;;;6.92;100.00;101047.97;5555643;25;20007;-69
2024/04/17 07:05:04;;;;;;;8.65;3.03;;;;;;;6.91;100.00;101046.34;5560864;25;20356;-69
2024/04/17 07:07:52;;;;;;;11.73;3.17;;;;;;;6.92;100.00;101048.78;5510890;25;19993;-69
2024/04/17 07:10:40;;;;;;;9.80;3.17;;;;;;;7.00;100.00;101050.34;5571119;25;20020;-68
2024/04/17 07:13:29;;;;;;;10.13;3.03;;;;;;;7.00;100.00;101047.63;5529394;25;20020;-70
2024/04/17 07:16:18;;;;;;;12.30;3.20;;;;;;;6.94;100.00;101053.97;5537563;25;20290;-69
2024/04/17 07:19:06;;;;;;;12.07;2.90;;;;;;;6.95;100.00;101055.63;5486589;25;20004;-68
2024/04/17 07:21:55;;;;;;;13.07;3.00;;;;;;;7.03;100.00;101049.84;5514707;25;20007;-69
2024/04/17 07:24:44;;;;;;;8.55;2.95;;;;;;;7.01;100.00;101041.94;5564726;25;20068;-70
2024/04/17 07:27:32;;;;;;;10.10;3.00;;;;;;;7.04;100.00;101046.06;5515969;25;20054;-68
2024/04/17 07:30:20;;;;;;;13.07;3.65;;;;;;;7.09;100.00;101054.28;5510676;25;20004;-68
2024/04/17 07:33:08;;;;;;;14.18;3.25;;;;;;;7.10;100.00;101047.84;5510749;25;20460;-69
2024/04/17 07:36:00;;;;;;;11.77;3.17;;;;;;;7.17;100.00;101043.09;5561059;25;20068;-69
2024/04/17 07:38:48;;;;;;;12.25;3.55;;;;;;;7.18;100.00;101047.44;5506797;25;20016;-68
2024/04/17 07:41:36;;;;;;;13.80;3.53;;;;;;;7.19;100.00;101040.97;5481308;25;20041;-68
2024/04/17 07:44:24;;;;;;;10.57;3.42;;;;;;;7.22;100.00;101051.34;5558980;25;20025;-68
2024/04/17 07:47:12;;;;;;;12.82;3.55;;;;;;;7.22;100.00;101054.03;5506019;25;20008;-69
2024/04/17 07:50:00;;;;;;;11.73;3.40;;;;;;;7.31;100.00;101061.78;5507337;25;20119;-65
2024/04/17 07:52:49;;;;;;;13.82;3.35;;;;;;;7.31;100.00;101050.94;5557325;25;20521;-68
2024/04/17 07:55:37;;;;;;;9.90;3.00;;;;;;;7.34;100.00;101056.72;5534235;25;20354;-68
2024/04/17 07:58:26;;;;;;;13.43;3.10;;;;;;;7.36;100.00;101049.19;5604849;25;20359;-68
2024/04/17 08:01:16;;;;;;;13.15;3.20;;;;;;;7.38;100.00;101047.03;5512970;26;19997;-66
2024/04/17 08:04:04;;;;;;;15.40;3.17;;;;;;;7.46;100.00;101045.84;5513964;25;20053;-69
2024/04/17 08:06:53;;;;;;;13.27;3.50;;;;;;;7.54;100.00;101050.88;5541937;25;20025;-64
2024/04/17 08:09:41;;;;;;;13.48;3.35;;;;;;;7.58;100.00;101052.03;5485531;26;20009;-62
2024/04/17 08:12:29;;;;;;;12.43;3.35;;;;;;;7.63;100.00;101048.59;5513809;26;20009;-67
2024/04/17 08:15:20;;;;;;;12.65;2.83;;;;;;;7.68;100.00;101048.69;5490672;26;19998;-66
2024/04/17 08:18:08;;;;;;;13.20;3.35;;;;;;;7.66;100.00;101048.91;5495593;26;20061;-68
2024/04/17 08:20:57;;;;;;;14.00;3.35;;;;;;;7.69;100.00;101048.44;5448288;26;20009;-68
2024/04/17 08:23:45;;;;;;;11.02;2.90;;;;;;;7.70;100.00;101038.41;5469837;26;20000;-68
2024/04/17 08:26:33;;;;;;;9.55;2.97;;;;;;;7.71;100.00;101044.66;5461653;25;20022;-68
2024/04/17 08:29:22;;;;;;;12.88;3.25;;;;;;;7.91;100.00;101042.31;5447024;26;19994;-67
2024/04/17 08:32:10;;;;;;;11.63;2.55;;;;;;;7.93;100.00;101037.44;5497628;26;20001;-67
2024/04/17 08:34:58;;;;;;;14.00;3.67;;;;;;;7.98;100.00;101050.28;5508148;26;20021;-67
2024/04/17 08:37:46;;;;;;;15.80;3.78;;;;;;;7.94;100.00;101043.69;5524325;26;19998;-65
2024/04/17 08:40:37;;;;;;;11.02;2.85;;;;;;;7.90;100.00;101059.66;5432784;26;20435;-66
2024/04/17 08:43:26;;;;;;;14.20;3.13;;;;;;;7.87;100.00;101055.53;5489398;26;19998;-67
2024/04/17 08:46:16;;;;;;;15.80;3.67;;;;;;;7.84;100.00;101050.63;5462750;26;20047;-67
2024/04/17 08:49:04;;;;;;;15.60;3.38;;;;;;;7.84;100.00;101053.31;5509958;25;19993;-67
2024/04/17 08:51:53;;;;;;;12.93;3.22;;;;;;;7.85;100.00;101049.53;5434862;26;20455;-67
2024/04/17 08:54:43;;;;;;;16.23;3.35;;;;;;;7.86;100.00;101061.19;5498535;26;20650;-69
2024/04/17 08:57:31;;;;;;;14.82;3.17;;;;;;;7.84;100.00;101052.47;5499458;26;20070;-70
2024/04/17 09:00:24;;;;;;;8.80;3.10;;;;;;;7.87;100.00;101054.72;5522914;26;20033;-69
2024/04/17 09:03:19;;;;;;;13.13;3.22;;;;;;;7.93;100.00;101048.31;5472187;26;20001;-68
2024/04/17 09:06:09;;;;;;;13.27;3.33;;;;;;;7.96;100.00;101053.25;5501767;26;20456;-70
2024/04/17 09:08:57;;;;;;;10.88;3.08;;;;;;;7.97;98.52;101059.50;5497127;26;19994;-70
2024/04/17 09:11:45;;;;;;;14.90;3.15;;;;;;;7.99;98.18;101062.81;5522828;26;20316;-68
2024/04/17 09:14:37;;;;;;;14.32;3.22;;;;;;;8.04;98.99;101055.56;5487578;26;20032;-70
2024/04/17 09:17:38;;;;;;;12.32;3.13;;;;;;;8.08;97.82;101062.16;5461628;26;20457;-71
2024/04/17 09:20:27;;;;;;;9.07;2.53;;;;;;;8.01;100.00;101077.78;5475565;26;20005;-70
2024/04/17 09:23:15;;;;;;;5.63;2.13;;;;;;;7.77;100.00;101084.34;5470976;26;20012;-70
2024/04/17 09:26:14;;;;;;;6.50;2.00;;;;;;;7.60;100.00;101087.88;5476504;26;20302;-69
2024/04/17 09:29:02;;;;;;;4.30;2.17;;;;;;;7.52;100.00;101082.00;5497475;26;19993;-70
2024/04/17 09:31:51;;;;;;;5.35;1.80;;;;;;;7.52;100.00;101076.56;5523155;26;20074;-70
2024/04/17 09:34:39;;;;;;;5.53;1.85;;;;;;;7.56;100.00;101080.47;5482365;26;19998;-70
2024/04/17 09:37:27;;;;;;;5.93;1.70;;;;;;;7.56;100.00;101097.53;5487127;26;20006;-69
2024/04/17 09:40:16;;;;;;;4.95;1.92;;;;;;;7.52;100.00;101090.94;5448838;26;19997;-69
2024/04/17 09:43:08;;;;;;;4.07;1.48;;;;;;;7.43;100.00;101084.25;5522205;26;19997;-70
2024/04/17 09:46:09;;;;;;;5.40;1.80;;;;;;;7.42;100.00;101078.00;5500405;26;20017;-69
2024/04/17 09:48:58;;;;;;;4.45;1.88;;;;;;;7.52;100.00;101082.81;5505028;26;19993;-71
2024/04/17 09:51:47;;;;;;;6.40;1.92;;;;;;;7.40;100.00;101068.47;5493478;26;20075;-71
2024/04/17 09:54:36;;;;;;;4.55;1.90;;;;;;;7.38;100.00;101070.59;5459607;26;19998;-70
2024/04/17 09:57:26;;;;;;;3.05;1.63;;;;;;;7.44;100.00;101072.38;5520895;26;20027;-70
2024/04/17 10:00:14;;;;;;;2.50;1.30;;;;;;;7.34;100.00;101070.28;5490578;26;19997;-71
2024/04/17 10:03:03;;;;;;;2.15;1.10;;;;;;;7.41;100.00;101070.13;5508097;26;20636;-70
2024/04/17 10:05:52;;;;;;;1.13;1.10;;;;;;;7.42;100.00;101066.34;5437003;26;20006;-70
2024/04/17 10:08:41;;;;;;;2.83;1.30;;;;;;;7.50;100.00;101068.66;5452554;25;19997;-70
2024/04/17 10:11:30;;;;;;;2.85;1.23;;;;;;;7.54;100.00;101060.88;5498873;26;20013;-69
2024/04/17 10:14:18;;;;;;;1.70;1.00;;;;;;;7.56;97.20;101059.59;5495156;26;20013;-69
2024/04/17 10:17:09;;;;;;;1.88;1.10;;;;;;;7.60;95.34;101055.34;5441882;26;20312;-69
2024/04/17 10:20:27;;;;;;;3.30;1.25;;;;;;;7.68;94.96;101062.25;5476382;26;20320;-70
2024/04/17 10:23:15;;;;;;;4.15;1.23;;;;;;;7.75;95.61;101053.97;5504993;26;20005;-69
2024/04/17 10:26:04;;;;;;;4.22;1.42;;;;;;;7.81;95.50;101061.94;5526906;26;20009;-71
2024/04/17 10:28:52;;;;;;;3.03;1.20;;;;;;;7.87;95.72;101044.69;5475114;26;19997;-70
2024/04/17 10:31:40;;;;;;;2.95;1.40;;;;;;;7.94;95.22;101055.41;5163330;25;10000405;-71
2024/04/17 10:34:30;;;;;;;3.55;1.45;;;;;;;7.96;98.45;101047.84;5516752;25;20001;-70
2024/04/17 10:37:18;;;;;;;2.80;1.35;;;;;;;8.03;100.00;101050.38;5467634;26;20001;-70
2024/04/17 10:40:10;;;;;;;4.53;1.50;;;;;;;8.10;100.00;101053.75;5469189;26;20120;-70
2024/04/17 10:42:58;;;;;;;1.95;1.40;;;;;;;8.16;100.00;101052.78;5469093;26;20438;-72
2024/04/17 10:45:46;;;;;;;3.40;1.63;;;;;;;8.22;100.00;101050.97;5465032;26;20006;-71
2024/04/17 10:48:51;;;;;;;3.17;1.60;;;;;;;8.26;100.00;101046.69;5457987;26;19998;-69
2024/04/17 10:51:39;;;;;;;2.17;1.17;;;;;;;8.34;100.00;101046.28;5471844;26;20338;-69
2024/04/17 10:54:28;;;;;;;2.67;1.50;;;;;;;8.38;100.00;101050.13;5490694;26;20041;-70
2024/04/17 10:57:17;;;;;;;4.90;1.38;;;;;;;8.34;100.00;101043.56;5494805;26;20016;-71
2024/04/17 11:00:06;;;;;;;2.47;1.42;;;;;;;8.39;100.00;101048.25;5459378;26;20006;-70
2024/04/17 11:02:54;;;;;;;4.15;1.40;;;;;;;8.32;100.00;101042.97;5431543;26;20045;-70
2024/04/17 11:05:42;;;;;;;3.58;1.50;;;;;;;8.34;100.00;101035.41;5484494;26;20085;-71
2024/04/17 11:08:31;;;;;;;3.38;1.58;;;;;;;8.40;100.00;101037.19;5491645;26;20501;-71
2024/04/17 11:11:19;;;;;;;2.58;1.50;;;;;;;8.49;100.00;101035.69;5504860;25;20037;-70
2024/04/17 11:14:14;;;;;;;3.60;1.60;;;;;;;8.57;98.88;101029.00;5473677;25;20402;-70
2024/04/17 11:17:04;;;;;;;3.72;1.60;;;;;;;8.62;98.20;101034.50;5526772;25;20076;-70
2024/04/17 11:19:52;;;;;;;6.00;1.77;;;;;;;8.66;95.68;101032.09;5477772;25;19997;-70
2024/04/17 11:22:43;;;;;;;4.72;1.73;;;;;;;8.73;96.18;101038.19;5492265;26;19997;-72
2024/04/17 11:25:31;;;;;;;3.00;1.58;;;;;;;8.73;92.68;101024.59;5522734;25;20457;-71
2024/04/17 11:28:22;;;;;;;2.33;1.40;;;;;;;8.80;93.93;101029.84;5503480;25;19996;-71
2024/04/17 11:31:11;;;;;;;2.08;1.13;;;;;;;8.86;90.84;101024.25;5511156;25;20016;-70
2024/04/17 11:33:59;;;;;;;4.40;1.70;;;;;;;8.98;93.07;101026.03;5526463;25;20072;-71
2024/04/17 11:36:48;;;;;;;2.60;1.35;;;;;;;9.04;92.56;101022.28;5554153;25;20396;-71
2024/04/17 11:39:38;;;;;;;5.50;1.50;;;;;;;9.01;84.68;101022.81;5482120;25;20001;-71
2024/04/17 11:42:31;;;;;;;3.30;1.10;;;;;;;9.05;83.38;101021.22;5558723;25;20000;-71
2024/04/17 11:45:19;;;;;;;3.35;1.50;;;;;;;9.08;81.47;101018.81;5560794;25;20008;-70
2024/04/17 11:48:08;;;;;;;4.78;1.48;;;;;;;9.10;81.28;101024.81;5559282;25;20393;-70
2024/04/17 11:50:57;;;;;;;4.32;1.27;;;;;;;9.15;82.75;101010.47;5544734;25;20029;-70
2024/04/17 11:53:45;;;;;;;3.15;1.38;;;;;;;9.16;86.88;101018.38;5531851;25;20083;-70
2024/04/17 11:56:33;;;;;;;4.60;1.52;;;;;;;9.04;96.96;101014.94;5537022;25;20005;-70
2024/04/17 11:59:21;;;;;;;3.22;1.52;;;;;;;8.88;100.00;101022.09;5511996;25;20072;-70
2024/04/17 12:02:09;;;;;;;4.95;1.67;;;;;;;8.80;100.00;101030.66;5486113;25;19997;-70
2024/04/17 12:04:57;;;;;;;4.32;1.63;;;;;;;8.66;100.00;101021.22;5534938;25;20024;-70
2024/04/17 12:07:46;;;;;;;2.95;1.63;;;;;;;8.63;100.00;101008.16;5562779;25;19997;-70
2024/04/17 12:10:35;;;;;;;4.80;1.80;;;;;;;8.54;100.00;101018.66;5498828;26;20005;-71
2024/04/17 12:13:23;;;;;;;4.35;1.50;;;;;;;8.50;100.00;101023.75;5498598;26;20002;-70
2024/04/17 12:16:11;;;;;;;4.38;1.75;;;;;;;8.53;100.00;101006.94;5469464;26;20460;-70
2024/04/17 12:18:59;;;;;;;3.38;1.75;;;;;;;8.65;100.00;101011.47;5473425;26;20002;-71
2024/04/17 12:21:48;;;;;;;4.43;2.05;;;;;;;8.73;100.00;100997.44;5418893;26;19998;-70
2024/04/17 12:27:43;;;;;;;3.65;1.70;;;;;;;8.80;100.00;101011.66;5487691;26;19997;-69
2024/04/17 12:30:31;;;;;;;5.13;2.00;;;;;;;8.78;100.00;101011.09;5481725;26;20043;-68
2024/04/17 12:33:19;;;;;;;7.93;2.15;;;;;;;8.73;100.00;101019.16;5482522;26;19998;-69
2024/04/17 12:36:08;;;;;;;3.95;1.63;;;;;;;8.69;97.09;101023.47;5546646;26;19990;-70
2024/04/17 12:38:56;;;;;;;6.43;2.28;;;;;;;8.62;94.74;101023.66;5497608;26;20033;-70
2024/04/17 12:41:47;;;;;;;3.88;1.60;;;;;;;8.51;92.81;101039.00;5544862;26;19997;-68
2024/04/17 12:44:35;;;;;;;8.85;2.20;;;;;;;8.49;92.75;101027.53;5451287;26;20009;-69
2024/04/17 12:47:23;;;;;;;5.50;1.92;;;;;;;8.52;92.26;101029.75;5526402;26;20430;-69
2024/04/17 12:50:12;;;;;;;3.75;1.80;;;;;;;8.53;93.10;101020.53;5502130;26;20001;-71
2024/04/17 12:53:01;;;;;;;6.70;2.10;;;;;;;8.63;95.12;101027.19;5494975;25;20050;-70
2024/04/17 12:55:57;;;;;;;3.88;2.03;;;;;;;8.60;92.08;101027.69;5523407;26;20002;-69
2024/04/17 12:58:46;;;;;;;5.10;2.00;;;;;;;8.56;93.34;101035.50;5499149;26;20563;-70
2024/04/17 13:01:34;;;;;;;4.78;1.80;;;;;;;8.52;94.08;101034.38;5497101;26;20000;-71
2024/04/17 13:04:22;;;;;;;5.90;2.03;;;;;;;8.51;95.29;101036.28;5522488;26;20012;-71